Time;durP1;ratioP1;P1;durP2;ratioP2;P2;SDS_P1;SDS_P2;PMS_P1;PMS_P2;Temp;Humidity;BMP_temperature;BMP_pressure;BME280_temperature;BME280_humidity;BME280_pressure;Samples;Min_cycle;Max_cycle;Signal;HPM_P1;HPM_P2
2021/03/11 00:02:23;;;;;;;31.73;13.88;;;;;;;5.67;78.56;100199.47;5092750;28;20097;-60
2021/03/11 00:04:48;;;;;;;31.23;14.25;;;;;;;5.64;78.97;100178.44;5092661;28;20020;-61
2021/03/11 00:07:15;;;;;;;30.45;12.68;;;;;;;5.62;79.15;100174.91;5092920;28;20374;-60
2021/03/11 00:09:40;;;;;;;32.40;15.30;;;;;;;5.56;80.33;100166.09;5091241;28;20022;-61
2021/03/11 00:12:07;;;;;;;30.27;14.18;;;;;;;5.51;80.69;100154.66;5092995;28;20103;-62
2021/03/11 00:14:33;;;;;;;31.35;14.02;;;;;;;5.53;80.95;100166.06;5089217;28;20035;-61
2021/03/11 00:16:59;;;;;;;33.55;15.80;;;;;;;5.46;81.51;100147.56;5092553;28;20378;-60
2021/03/11 00:19:25;;;;;;;30.83;12.32;;;;;;;5.64;80.84;100163.56;5091574;28;20360;-61
2021/03/11 00:21:50;;;;;;;31.17;14.98;;;;;;;5.63;81.07;100150.44;5092027;28;20462;-61
2021/03/11 00:24:15;;;;;;;30.83;13.15;;;;;;;5.62;80.78;100153.91;5091852;28;20020;-61
2021/03/11 00:26:41;;;;;;;33.72;16.58;;;;;;;5.50;81.82;100144.16;5091635;28;20028;-61
2021/03/11 00:29:07;;;;;;;31.27;14.15;;;;;;;5.61;81.71;100146.91;5092156;28;20072;-63
2021/03/11 00:31:32;;;;;;;29.88;14.68;;;;;;;5.54;81.77;100136.34;5092753;28;20099;-61
2021/03/11 00:33:57;;;;;;;29.75;13.52;;;;;;;5.58;81.73;100117.16;5093440;28;20027;-61
2021/03/11 00:36:22;;;;;;;31.33;15.07;;;;;;;5.55;82.17;100127.63;5091593;28;20086;-62
2021/03/11 00:38:48;;;;;;;30.77;14.10;;;;;;;5.52;82.88;100121.44;5091620;28;20036;-61
2021/03/11 00:41:13;;;;;;;32.72;15.50;;;;;;;5.58;82.62;100095.31;5091325;28;20036;-61
2021/03/11 00:43:38;;;;;;;30.25;13.52;;;;;;;5.63;82.07;100103.25;5092600;28;20064;-61
2021/03/11 00:46:04;;;;;;;34.60;17.20;;;;;;;5.57;82.42;100094.41;5089180;28;20470;-64
2021/03/11 00:48:29;;;;;;;32.63;15.82;;;;;;;5.62;82.06;100080.50;5091410;28;20059;-61
2021/03/11 00:50:54;;;;;;;30.95;15.15;;;;;;;5.66;82.01;100092.78;5091742;28;20024;-68
2021/03/11 00:53:20;;;;;;;33.08;15.50;;;;;;;5.59;82.24;100074.38;5091419;28;20036;-62
2021/03/11 00:55:45;;;;;;;31.88;12.88;;;;;;;5.51;82.74;100072.50;5091059;28;20059;-61
2021/03/11 00:58:10;;;;;;;31.15;15.02;;;;;;;5.68;82.27;100072.69;5091988;28;20028;-61
2021/03/11 01:00:36;;;;;;;31.52;14.55;;;;;;;5.80;81.55;100072.84;5092208;28;20503;-61
2021/03/11 01:03:01;;;;;;;30.33;14.82;;;;;;;5.79;81.14;100073.72;5094517;28;20122;-61
2021/03/11 01:05:30;;;;;;;31.00;13.60;;;;;;;5.87;81.01;100056.31;5091391;28;20064;-61
2021/03/11 01:07:56;;;;;;;30.25;13.48;;;;;;;5.89;80.77;100041.47;5090325;28;20038;-61
2021/03/11 01:10:21;;;;;;;31.27;15.27;;;;;;;5.92;80.68;100051.13;5093280;28;20110;-61
2021/03/11 01:12:46;;;;;;;30.35;14.02;;;;;;;5.96;80.88;100045.03;5090863;28;20045;-61
2021/03/11 01:15:12;;;;;;;30.10;14.65;;;;;;;5.97;80.84;100033.72;5092608;28;20039;-61
2021/03/11 01:17:37;;;;;;;29.92;13.15;;;;;;;5.97;80.97;100044.22;5091757;28;20024;-61
2021/03/11 01:20:15;;;;;;;31.90;16.67;;;;;;;5.89;81.80;100028.34;5093701;28;20035;-61
2021/03/11 01:22:41;;;;;;;28.40;12.80;;;;;;;5.95;82.12;100017.03;5095903;28;20077;-61
2021/03/11 01:25:07;;;;;;;31.88;14.70;;;;;;;5.68;84.71;100020.25;5096010;28;20032;-62
2021/03/11 01:27:33;;;;;;;32.60;15.15;;;;;;;5.66;85.80;100021.97;5096078;28;20068;-61
2021/03/11 01:29:59;;;;;;;31.80;13.88;;;;;;;5.48;88.54;100005.19;5095831;28;20424;-62
2021/03/11 01:32:25;;;;;;;28.33;12.52;;;;;;;5.56;87.42;100002.63;5095397;28;20051;-71
2021/03/11 01:34:50;;;;;;;30.77;13.80;;;;;;;5.58;87.59;100000.94;5094003;28;20475;-61
2021/03/11 01:37:15;;;;;;;29.10;12.93;;;;;;;5.52;88.87;99983.38;5096817;28;20499;-62
2021/03/11 01:39:41;;;;;;;28.60;11.88;;;;;;;5.62;89.15;99965.13;5096038;28;20036;-67
2021/03/11 01:42:06;;;;;;;30.58;15.05;;;;;;;5.62;89.17;99957.25;5094672;28;20032;-61
2021/03/11 01:44:31;;;;;;;28.67;12.25;;;;;;;5.67;88.38;99945.09;5096037;28;20043;-64
2021/03/11 01:46:57;;;;;;;30.90;13.70;;;;;;;5.58;92.18;99951.13;5095356;28;20036;-66
2021/03/11 01:49:23;;;;;;;30.60;12.82;;;;;;;5.57;92.14;99957.22;5093398;28;20020;-61
2021/03/11 01:51:48;;;;;;;29.45;12.43;;;;;;;5.58;92.10;99941.50;5095738;28;20024;-63
2021/03/11 01:54:14;;;;;;;27.92;11.73;;;;;;;5.56;93.14;99934.47;5095651;28;20371;-62
2021/03/11 01:56:40;;;;;;;28.63;12.55;;;;;;;5.63;92.91;99935.41;5095425;28;20111;-61
2021/03/11 01:59:06;;;;;;;29.88;13.55;;;;;;;5.48;95.54;99915.19;5094424;28;20348;-63
2021/03/11 02:01:31;;;;;;;26.77;11.80;;;;;;;5.63;94.03;99909.19;5092968;28;20145;-61
2021/03/11 02:03:57;;;;;;;29.38;13.45;;;;;;;5.60;94.63;99910.03;5095075;28;20036;-62
2021/03/11 02:06:22;;;;;;;26.55;11.40;;;;;;;5.59;94.61;99901.31;5094870;28;20023;-62
2021/03/11 02:08:47;;;;;;;32.72;16.38;;;;;;;5.61;95.39;99895.19;5095300;28;20399;-61
2021/03/11 02:11:19;;;;;;;28.15;12.60;;;;;;;5.72;94.64;99911.91;5094472;28;20024;-61
2021/03/11 02:13:53;;;;;;;28.17;12.48;;;;;;;5.80;93.78;99880.50;5094474;28;20016;-62
2021/03/11 02:16:32;;;;;;;31.23;15.93;;;;;;;5.63;95.41;99890.84;5093816;28;20064;-61
2021/03/11 02:19:10;;;;;;;29.10;14.85;;;;;;;5.68;95.32;99887.41;5092368;28;20084;-71
2021/03/11 02:21:41;;;;;;;26.65;12.70;;;;;;;5.86;94.36;99884.03;5093757;28;20047;-63
2021/03/11 02:24:25;;;;;;;30.40;15.00;;;;;;;5.72;95.75;99865.59;5095345;28;20026;-60
2021/03/11 02:27:15;;;;;;;28.77;14.05;;;;;;;5.89;94.50;99851.72;5094286;28;20103;-62
2021/03/11 02:29:43;;;;;;;28.05;13.57;;;;;;;5.81;94.94;99814.06;5094723;28;20024;-62
2021/03/11 02:32:10;;;;;;;32.72;15.20;;;;;;;5.70;96.81;99809.59;5093556;28;20090;-62
2021/03/11 02:34:39;;;;;;;28.35;12.77;;;;;;;5.77;96.21;99810.53;5095038;28;20028;-61
2021/03/11 02:37:11;;;;;;;29.83;13.98;;;;;;;5.80;96.21;99799.22;5093545;28;20070;-63
2021/03/11 02:39:41;;;;;;;30.40;14.68;;;;;;;5.76;96.53;99809.66;5092538;28;20036;-64
2021/03/11 02:42:08;;;;;;;30.63;14.40;;;;;;;5.74;97.03;99814.03;5092788;28;20028;-62
2021/03/11 02:44:35;;;;;;;27.60;11.90;;;;;;;5.87;96.46;99804.50;5094378;28;20032;-63
2021/03/11 02:47:02;;;;;;;29.67;13.90;;;;;;;5.81;96.68;99828.06;5093507;28;20360;-62
2021/03/11 02:49:28;;;;;;;30.98;14.63;;;;;;;5.83;97.14;99802.72;5090230;28;20024;-62
2021/03/11 02:51:54;;;;;;;29.23;13.63;;;;;;;5.88;96.53;99808.88;5093201;28;20036;-63
2021/03/11 02:54:21;;;;;;;30.10;15.38;;;;;;;5.89;96.56;99794.00;5094695;28;20024;-65
2021/03/11 02:56:48;;;;;;;30.48;14.27;;;;;;;5.90;96.72;99780.03;5092691;28;20026;-65
2021/03/11 02:59:14;;;;;;;30.35;13.68;;;;;;;5.86;97.19;99796.63;5094919;28;20202;-62
2021/03/11 03:01:41;;;;;;;32.70;16.10;;;;;;;5.80;97.62;99780.84;5094010;28;20028;-61
2021/03/11 03:04:10;;;;;;;27.98;13.50;;;;;;;5.89;97.54;99775.66;5093067;28;20059;-63
2021/03/11 03:06:37;;;;;;;30.88;14.40;;;;;;;5.91;97.21;99763.41;5093308;28;20039;-62
2021/03/11 03:09:03;;;;;;;29.75;14.40;;;;;;;5.96;96.86;99756.47;5093970;28;20024;-62
2021/03/11 03:11:29;;;;;;;26.52;11.05;;;;;;;6.13;95.58;99743.47;5092756;28;20374;-62
2021/03/11 03:13:55;;;;;;;26.65;11.27;;;;;;;6.17;94.94;99737.34;5074891;28;20016;-62
2021/03/11 03:16:21;;;;;;;31.05;16.20;;;;;;;6.07;96.39;99738.19;5093764;28;20035;-61
2021/03/11 03:18:46;;;;;;;30.95;14.60;;;;;;;6.12;96.11;99718.09;5092268;28;20555;-63
2021/03/11 03:21:12;;;;;;;26.77;12.20;;;;;;;6.28;95.08;99732.16;5093333;28;20084;-61
2021/03/11 03:23:42;;;;;;;30.10;13.95;;;;;;;6.23;95.40;99740.03;5093577;28;20073;-63
2021/03/11 03:26:08;;;;;;;27.30;12.73;;;;;;;6.36;93.51;99719.06;5091356;28;20016;-61
2021/03/11 03:28:35;;;;;;;30.55;14.73;;;;;;;6.38;93.34;99707.69;5093611;28;20043;-61
2021/03/11 03:31:02;;;;;;;28.67;13.68;;;;;;;6.36;94.11;99688.41;5093356;28;20016;-61
2021/03/11 03:33:28;;;;;;;28.42;12.57;;;;;;;6.40;93.63;99695.44;5092661;28;20031;-61
2021/03/11 03:35:53;;;;;;;28.38;12.90;;;;;;;6.42;93.38;99685.84;5091995;28;20024;-61
2021/03/11 03:38:19;;;;;;;28.60;12.88;;;;;;;6.41;94.12;99712.97;5093397;28;20029;-61
2021/03/11 03:40:45;;;;;;;28.45;11.88;;;;;;;6.54;92.49;99720.84;5091051;28;20020;-64
2021/03/11 03:43:24;;;;;;;32.15;16.63;;;;;;;6.42;95.14;99679.69;5094323;28;20027;-64
2021/03/11 03:46:11;;;;;;;28.58;13.90;;;;;;;6.45;95.59;99679.69;5092914;28;20089;-62
2021/03/11 03:48:39;;;;;;;32.33;16.40;;;;;;;6.43;96.09;99655.19;5093635;28;20024;-62
2021/03/11 03:51:05;;;;;;;29.50;12.50;;;;;;;6.41;97.19;99691.09;5072917;28;20028;-61
2021/03/11 03:53:39;;;;;;;33.00;15.43;;;;;;;6.31;98.46;99684.06;5093047;28;20412;-62
2021/03/11 03:56:09;;;;;;;31.92;14.65;;;;;;;6.35;98.58;99670.94;5090714;28;20483;-61
2021/03/11 03:58:35;;;;;;;32.60;14.35;;;;;;;6.39;98.68;99683.22;5091713;28;20093;-62
2021/03/11 04:01:02;;;;;;;35.13;16.55;;;;;;;6.41;99.14;99681.44;5093099;28;20024;-63
2021/03/11 04:03:29;;;;;;;34.05;15.95;;;;;;;6.47;98.87;99677.97;5089715;28;20071;-61
2021/03/11 04:05:55;;;;;;;39.25;19.20;;;;;;;6.45;99.31;99677.06;5091118;28;20486;-61
2021/03/11 04:08:23;;;;;;;29.35;14.27;;;;;;;6.56;98.64;99674.50;5091698;28;20432;-63
2021/03/11 04:10:49;;;;;;;30.10;12.57;;;;;;;6.59;98.69;99653.47;5092440;28;20020;-63
2021/03/11 04:13:15;;;;;;;32.83;16.38;;;;;;;6.57;99.13;99635.09;5091559;28;20386;-61
2021/03/11 04:15:41;;;;;;;34.00;14.40;;;;;;;6.54;99.54;99621.06;5093274;28;20028;-62
2021/03/11 04:18:07;;;;;;;34.53;15.68;;;;;;;6.62;99.35;99628.09;5094100;28;20016;-63
2021/03/11 04:20:33;;;;;;;30.80;15.07;;;;;;;6.83;97.69;99615.88;5091347;28;20024;-66
2021/03/11 04:22:58;;;;;;;31.92;14.07;;;;;;;6.82;97.73;99608.84;5092881;28;20031;-64
2021/03/11 04:25:24;;;;;;;29.35;12.93;;;;;;;6.79;98.17;99588.72;5091737;28;20024;-64
2021/03/11 04:27:50;;;;;;;32.20;15.50;;;;;;;6.90;97.23;99612.38;5091320;28;20055;-69
2021/03/11 04:30:17;;;;;;;33.17;15.88;;;;;;;6.83;98.14;99620.22;5093103;28;20422;-64
2021/03/11 04:32:42;;;;;;;31.83;13.27;;;;;;;6.81;98.51;99622.84;5091088;28;20024;-63
2021/03/11 04:35:09;;;;;;;31.08;13.27;;;;;;;6.98;96.79;99592.19;5093143;28;20424;-63
2021/03/11 04:37:37;;;;;;;27.17;12.15;;;;;;;6.98;96.65;99586.94;5091709;28;20028;-62
2021/03/11 04:40:03;;;;;;;32.58;12.98;;;;;;;7.12;95.63;99596.56;5095012;28;20019;-63
2021/03/11 04:42:29;;;;;;;31.52;15.10;;;;;;;7.12;95.11;99584.31;5091762;28;20073;-64
2021/03/11 04:44:54;;;;;;;29.42;13.45;;;;;;;7.20;94.85;99580.78;5090752;28;20032;-63
2021/03/11 04:47:20;;;;;;;31.10;14.43;;;;;;;7.18;94.72;99572.91;5092764;28;20040;-63
2021/03/11 04:49:47;;;;;;;30.67;13.90;;;;;;;7.20;94.47;99579.03;5091296;28;20053;-64
2021/03/11 04:52:13;;;;;;;29.08;11.95;;;;;;;7.20;94.00;99565.88;5091384;28;20028;-64
2021/03/11 04:54:39;;;;;;;32.15;14.63;;;;;;;7.20;94.21;99594.81;5091582;28;20081;-66
2021/03/11 04:57:05;;;;;;;27.95;12.90;;;;;;;7.32;91.71;99613.19;5091002;28;20024;-65
2021/03/11 04:59:31;;;;;;;26.52;11.15;;;;;;;7.44;91.54;99590.34;5092824;28;20035;-63
2021/03/11 05:01:58;;;;;;;27.25;13.00;;;;;;;7.39;91.76;99586.88;5091180;28;20505;-62
2021/03/11 05:04:23;;;;;;;25.92;11.05;;;;;;;7.47;91.22;99587.72;5091367;28;20031;-63
2021/03/11 05:06:49;;;;;;;26.63;11.77;;;;;;;7.50;90.43;99587.72;5091969;28;20088;-64
2021/03/11 05:09:14;;;;;;;25.65;10.57;;;;;;;7.53;90.20;99587.72;5090194;28;20420;-63
2021/03/11 05:11:42;;;;;;;27.23;11.27;;;;;;;7.59;90.23;99590.31;5092334;28;20028;-63
2021/03/11 05:14:07;;;;;;;26.00;11.63;;;;;;;7.59;90.01;99592.09;5090967;28;20035;-63
2021/03/11 05:16:32;;;;;;;26.75;11.85;;;;;;;7.70;88.99;99582.38;5091878;28;20031;-63
2021/03/11 05:18:58;;;;;;;26.17;11.02;;;;;;;7.66;89.33;99571.00;5091031;28;20028;-61
2021/03/11 05:21:23;;;;;;;24.48;10.15;;;;;;;7.74;87.52;99581.50;5091977;28;20036;-62
2021/03/11 05:23:49;;;;;;;25.40;11.32;;;;;;;7.81;87.17;99571.81;5090837;28;20024;-62
2021/03/11 05:26:14;;;;;;;23.92;9.77;;;;;;;7.90;86.03;99577.03;5092186;28;20351;-61
2021/03/11 05:28:39;;;;;;;26.75;11.95;;;;;;;7.79;86.54;99565.69;5090604;28;20036;-61
2021/03/11 05:31:05;;;;;;;24.65;10.35;;;;;;;7.84;87.01;99558.66;5091951;28;20031;-61
2021/03/11 05:33:30;;;;;;;25.05;9.65;;;;;;;7.88;87.07;99555.13;5090290;28;20074;-63
2021/03/11 05:35:55;;;;;;;23.65;8.60;;;;;;;7.97;85.63;99533.16;5091165;28;20035;-64
2021/03/11 05:38:21;;;;;;;24.98;8.75;;;;;;;7.94;85.93;99531.41;5093028;28;20073;-61
2021/03/11 05:40:51;;;;;;;22.77;8.90;;;;;;;7.92;86.11;99543.72;5091677;28;20378;-62
2021/03/11 05:43:17;;;;;;;24.77;10.32;;;;;;;7.97;85.54;99549.81;5091483;28;20103;-62
2021/03/11 05:45:43;;;;;;;24.23;9.57;;;;;;;8.07;85.24;99531.31;5092423;28;20119;-63
2021/03/11 05:48:12;;;;;;;25.02;10.05;;;;;;;7.96;86.12;99534.88;5090381;28;20429;-61
2021/03/11 05:50:38;;;;;;;22.67;8.98;;;;;;;8.05;85.20;99520.81;5089884;28;20393;-62
2021/03/11 05:53:05;;;;;;;23.15;9.68;;;;;;;8.05;85.59;99546.25;5093242;28;20108;-62
2021/03/11 05:55:30;;;;;;;24.58;9.60;;;;;;;8.05;85.66;99533.97;5090496;28;20032;-64
2021/03/11 05:57:56;;;;;;;25.83;11.20;;;;;;;8.03;85.61;99547.13;5092656;28;20031;-64
2021/03/11 06:00:22;;;;;;;23.95;9.85;;;;;;;8.04;85.66;99526.97;5090712;28;20508;-61
2021/03/11 06:02:56;;;;;;;26.58;12.00;;;;;;;7.97;86.63;99531.38;5090852;28;20132;-61
2021/03/11 06:05:22;;;;;;;26.15;11.75;;;;;;;8.03;86.01;99539.25;5091063;28;20052;-61
2021/03/11 06:07:48;;;;;;;25.02;11.30;;;;;;;8.10;85.96;99520.78;5095390;28;20052;-61
2021/03/11 06:10:21;;;;;;;25.48;11.13;;;;;;;8.13;85.75;99510.25;5096292;28;20073;-61
2021/03/11 06:12:49;;;;;;;25.98;11.27;;;;;;;7.97;86.91;99518.22;5093761;28;20025;-61
2021/03/11 06:15:30;;;;;;;25.58;11.02;;;;;;;8.13;86.25;99505.84;5095187;28;20064;-63
2021/03/11 06:17:57;;;;;;;26.00;10.90;;;;;;;8.11;86.50;99518.16;5093952;28;20053;-61
2021/03/11 06:20:23;;;;;;;25.60;11.23;;;;;;;8.14;86.15;99523.38;5094421;28;20048;-61
2021/03/11 06:22:48;;;;;;;24.23;9.50;;;;;;;8.11;86.76;99501.47;5095020;28;20058;-61
2021/03/11 06:25:16;;;;;;;25.08;10.60;;;;;;;8.23;86.10;99485.59;5094516;28;20032;-63
2021/03/11 06:27:41;;;;;;;26.13;11.88;;;;;;;8.11;88.23;99507.63;5094580;28;20051;-62
2021/03/11 06:30:07;;;;;;;26.85;11.68;;;;;;;7.92;91.35;99521.75;5094763;28;20107;-63
2021/03/11 06:32:54;;;;;;;25.67;11.25;;;;;;;8.02;91.11;99521.72;5090599;28;20020;-71
2021/03/11 06:35:20;;;;;;;26.85;11.68;;;;;;;7.87;94.20;99492.84;5093344;28;20067;-66
2021/03/11 06:37:48;;;;;;;25.73;10.93;;;;;;;7.83;95.57;99512.16;5094016;28;20021;-71
2021/03/11 06:40:27;;;;;;;25.83;11.45;;;;;;;8.06;93.17;99500.63;5093801;28;20081;-74
2021/03/11 06:43:07;;;;;;;26.17;10.65;;;;;;;7.98;93.84;99506.81;5092162;28;20467;-73
2021/03/11 06:45:34;;;;;;;26.77;11.77;;;;;;;7.93;95.50;99553.34;5095304;28;20077;-70
2021/03/11 06:48:20;;;;;;;25.73;10.02;;;;;;;8.00;94.98;99506.81;5093483;28;20098;-72
2021/03/11 06:50:46;;;;;;;27.83;13.05;;;;;;;7.89;97.51;99522.66;5094610;28;20020;-69
2021/03/11 06:53:11;;;;;;;28.75;11.65;;;;;;;7.77;99.36;99528.84;5093139;28;20031;-68
2021/03/11 06:55:37;;;;;;;28.70;12.60;;;;;;;7.73;100.00;99526.25;5093316;28;20031;-69
2021/03/11 06:58:22;;;;;;;25.38;9.68;;;;;;;7.84;99.47;99534.97;5093395;28;20031;-73
2021/03/11 07:01:01;;;;;;;26.30;10.45;;;;;;;7.84;100.00;99513.94;5096240;28;20415;-73
2021/03/11 07:03:39;;;;;;;26.70;10.40;;;;;;;7.93;100.00;99529.66;5093205;28;20040;-71
2021/03/11 07:06:07;;;;;;;29.27;12.27;;;;;;;7.87;100.00;99542.84;5093445;28;20398;-71
2021/03/11 07:08:33;;;;;;;28.90;11.85;;;;;;;7.86;100.00;99530.56;5093601;28;20016;-72
2021/03/11 07:11:06;;;;;;;28.00;11.15;;;;;;;7.90;100.00;99516.50;5094193;28;20387;-74
2021/03/11 07:13:42;;;;;;;23.98;8.27;;;;;;;7.96;100.00;99521.72;5092563;28;20028;-70
2021/03/11 07:16:27;;;;;;;27.55;10.80;;;;;;;8.08;99.64;99517.28;5094393;28;20383;-71
2021/03/11 07:19:14;;;;;;;24.58;9.43;;;;;;;8.02;99.62;99505.03;5092060;28;20016;-71
2021/03/11 07:21:50;;;;;;;22.50;7.60;;;;;;;8.06;98.62;99525.19;5091961;28;20047;-70
2021/03/11 07:24:35;;;;;;;26.13;11.25;;;;;;;8.05;99.15;99522.56;5076303;28;20032;-70
2021/03/11 07:27:01;;;;;;;25.17;10.00;;;;;;;8.14;98.38;99536.56;5091632;28;20032;-73
2021/03/11 07:29:27;;;;;;;21.90;8.85;;;;;;;8.27;95.98;99518.03;5092533;28;20024;-74
2021/03/11 07:31:57;;;;;;;26.05;9.95;;;;;;;8.33;97.01;99496.91;5093107;28;20027;-70
2021/03/11 07:34:28;;;;;;;24.17;9.48;;;;;;;8.45;95.45;99491.59;5093168;28;20020;-71
2021/03/11 07:36:59;;;;;;;23.33;9.40;;;;;;;8.47;96.26;99499.47;5090024;28;20043;-71
2021/03/11 07:39:48;;;;;;;23.63;8.63;;;;;;;8.63;93.60;99485.28;5092468;28;20024;-73
2021/03/11 07:42:14;;;;;;;23.30;7.43;;;;;;;8.62;91.16;99465.09;4999318;28;20050;-74
2021/03/11 07:44:39;;;;;;;23.92;7.05;;;;;;;8.74;87.70;99477.28;4997319;28;20034;-71
2021/03/11 07:47:06;;;;;;;23.90;6.50;;;;;;;8.78;88.14;99470.22;4995543;28;20045;-76
2021/03/11 07:49:33;;;;;;;20.27;5.70;;;;;;;8.83;87.03;99482.44;4995574;28;20038;-76
2021/03/11 07:51:59;;;;;;;21.98;6.00;;;;;;;8.93;85.32;99472.69;4996371;28;20606;-75
2021/03/11 07:54:25;;;;;;;19.27;5.25;;;;;;;9.03;84.81;99453.25;4996847;28;20038;-73
2021/03/11 07:56:51;;;;;;;21.17;5.72;;;;;;;9.07;84.10;99457.59;4997444;28;20073;-77
2021/03/11 07:59:18;;;;;;;21.48;6.22;;;;;;;9.13;82.97;99471.59;4996546;28;20042;-77
2021/03/11 08:01:50;;;;;;;23.30;6.10;;;;;;;9.15;82.94;99461.91;4998204;28;20026;-71
2021/03/11 08:04:21;;;;;;;20.05;5.43;;;;;;;9.21;81.24;99456.56;4991608;28;20540;-76
2021/03/11 08:06:46;;;;;;;23.33;5.63;;;;;;;9.17;81.67;99454.84;4999613;28;20069;-75
2021/03/11 08:09:12;;;;;;;20.00;4.68;;;;;;;9.28;81.51;99466.16;4999375;28;20072;-74
2021/03/11 08:11:41;;;;;;;20.25;4.75;;;;;;;9.39;80.98;99458.97;4996653;28;20108;-76
2021/03/11 08:14:17;;;;;;;20.23;5.25;;;;;;;9.50;78.15;99448.28;5003776;28;20065;-74
2021/03/11 08:16:43;;;;;;;19.33;4.07;;;;;;;9.55;76.87;99424.47;4994829;28;20038;-73
2021/03/11 08:19:08;;;;;;;20.10;3.97;;;;;;;9.67;75.16;99450.69;5031577;28;20037;-70
2021/03/11 08:21:33;;;;;;;21.27;4.63;;;;;;;9.82;72.86;99428.47;5072965;28;20037;-73
2021/03/11 08:23:59;;;;;;;17.05;3.85;;;;;;;9.89;73.83;99427.47;5071332;28;20120;-75
2021/03/11 08:26:44;;;;;;;18.67;4.10;;;;;;;9.94;73.58;99430.91;5072012;28;20036;-73
2021/03/11 08:29:17;;;;;;;21.08;4.35;;;;;;;10.06;72.95;99411.38;5069226;28;20083;-74
2021/03/11 08:31:42;;;;;;;18.80;3.88;;;;;;;10.27;69.85;99420.72;5072711;28;20085;-70
2021/03/11 08:34:08;;;;;;;20.17;3.97;;;;;;;10.37;68.92;99402.97;5071228;28;20024;-74
2021/03/11 08:36:38;;;;;;;21.38;4.03;;;;;;;10.39;69.57;99398.53;5072099;28;20127;-75
2021/03/11 08:39:24;;;;;;;22.17;4.05;;;;;;;10.49;66.35;99401.03;5072023;28;20028;-71
2021/03/11 08:41:50;;;;;;;22.13;4.10;;;;;;;10.49;65.47;99445.94;5072205;28;20387;-74
2021/03/11 08:44:45;;;;;;;21.63;4.03;;;;;;;10.65;64.74;99399.81;5071476;28;20055;-73
2021/03/11 08:47:10;;;;;;;21.13;3.72;;;;;;;10.87;64.26;99389.69;5071042;28;20024;-73
2021/03/11 08:49:41;;;;;;;22.05;3.65;;;;;;;11.12;64.16;99389.19;5070669;28;20031;-72
2021/03/11 08:52:07;;;;;;;24.25;4.45;;;;;;;11.29;62.27;99405.59;5072153;28;20028;-72
2021/03/11 08:54:32;;;;;;;23.27;4.35;;;;;;;11.36;61.87;99435.44;5071078;28;20024;-71
2021/03/11 08:56:57;;;;;;;25.58;4.88;;;;;;;11.32;59.62;99418.75;5071334;28;20029;-70
2021/03/11 08:59:43;;;;;;;23.85;4.32;;;;;;;11.20;60.09;99378.44;5070496;28;20471;-69
2021/03/11 09:02:31;;;;;;;24.70;4.10;;;;;;;11.37;60.08;99399.25;5073776;28;20024;-70
2021/03/11 09:04:56;;;;;;;25.42;4.75;;;;;;;11.58;58.58;99421.75;5090575;28;20051;-69
2021/03/11 09:07:30;;;;;;;26.30;5.35;;;;;;;11.50;56.93;99448.34;5092013;28;20051;-72
2021/03/11 09:09:56;;;;;;;27.30;4.97;;;;;;;11.47;55.98;99404.28;5091245;28;20063;-71
2021/03/11 09:12:38;;;;;;;25.30;5.13;;;;;;;11.54;56.20;99422.72;5091152;28;20047;-73
2021/03/11 09:15:07;;;;;;;26.98;5.30;;;;;;;11.60;56.25;99396.97;5089645;28;20389;-73
2021/03/11 09:17:34;;;;;;;25.70;4.03;;;;;;;11.85;56.60;99418.47;5090760;28;20052;-71
2021/03/11 09:20:08;;;;;;;25.33;4.00;;;;;;;12.16;56.50;99388.59;5090910;28;20031;-66
2021/03/11 09:22:37;;;;;;;29.25;5.15;;;;;;;12.02;53.64;99390.72;5089935;28;20036;-71
2021/03/11 09:25:15;;;;;;;27.02;5.85;;;;;;;11.79;54.49;99423.88;5090707;28;20040;-63
2021/03/11 09:27:52;;;;;;;27.95;4.93;;;;;;;11.94;55.21;99393.56;5093737;28;20027;-62
2021/03/11 09:30:19;;;;;;;26.77;4.95;;;;;;;12.16;54.54;99406.28;5090471;28;20016;-61
2021/03/11 09:32:45;;;;;;;27.45;5.40;;;;;;;12.28;54.18;99387.41;5092523;28;20020;-66
2021/03/11 09:35:13;;;;;;;26.02;4.40;;;;;;;12.13;52.45;99414.28;5091312;28;20356;-61
2021/03/11 09:37:48;;;;;;;27.80;5.32;;;;;;;11.79;54.43;99402.69;5091585;28;20059;-62
2021/03/11 09:40:18;;;;;;;26.70;4.22;;;;;;;12.11;54.29;99414.31;5094574;28;20111;-64
2021/03/11 09:43:02;;;;;;;32.15;5.25;;;;;;;12.03;53.27;99430.41;5098111;28;20028;-62
2021/03/11 09:45:44;;;;;;;23.80;4.53;;;;;;;11.87;53.69;99394.59;5094789;28;20053;-62
2021/03/11 09:48:18;;;;;;;27.07;4.93;;;;;;;11.71;54.14;99412.63;5093736;28;20486;-62
2021/03/11 09:51:00;;;;;;;28.27;5.03;;;;;;;11.66;54.49;99431.25;5091123;28;20501;-63
2021/03/11 09:53:38;;;;;;;24.03;4.53;;;;;;;11.84;53.80;99431.72;5097107;28;20028;-62
2021/03/11 09:56:05;;;;;;;23.58;4.55;;;;;;;11.80;53.78;99435.34;5099343;28;20379;-63
2021/03/11 09:58:31;;;;;;;23.88;4.65;;;;;;;11.88;52.40;99421.94;5096084;28;20478;-62
2021/03/11 10:00:57;;;;;;;29.63;5.75;;;;;;;11.77;52.75;99407.16;5092173;28;20085;-62
2021/03/11 10:03:26;;;;;;;23.42;4.35;;;;;;;12.12;52.25;99418.72;5095290;28;20047;-62
2021/03/11 10:05:54;;;;;;;25.08;5.07;;;;;;;11.84;51.64;99427.31;5094219;28;20028;-64
2021/03/11 10:08:24;;;;;;;26.17;4.43;;;;;;;11.74;53.05;99433.72;5094846;28;20020;-63
2021/03/11 10:11:17;;;;;;;24.85;4.78;;;;;;;11.60;53.16;99418.13;5096055;28;20035;-63
2021/03/11 10:13:54;;;;;;;26.55;4.10;;;;;;;11.61;53.04;99424.31;5089664;28;20401;-64
2021/03/11 10:16:31;;;;;;;28.30;4.38;;;;;;;11.52;52.93;99431.53;5094725;28;20114;-64
2021/03/11 10:19:20;;;;;;;25.23;4.88;;;;;;;11.46;53.54;99431.69;5095160;28;20024;-64
2021/03/11 10:21:53;;;;;;;26.33;5.32;;;;;;;11.31;53.91;99432.00;5094925;28;20107;-64
2021/03/11 10:24:45;;;;;;;26.75;4.65;;;;;;;11.23;54.85;99449.81;5096456;28;20032;-64
2021/03/11 10:27:26;;;;;;;25.08;4.45;;;;;;;11.30;53.31;99462.00;5094306;28;20118;-64
2021/03/11 10:30:24;;;;;;;23.42;4.47;;;;;;;11.35;52.25;99423.09;5096537;28;20627;-63
2021/03/11 10:32:55;;;;;;;24.58;3.90;;;;;;;11.82;51.96;99434.41;5096475;28;20028;-62
2021/03/11 10:35:28;;;;;;;24.88;4.22;;;;;;;11.94;50.23;99456.22;5094132;28;20043;-70
2021/03/11 10:37:54;;;;;;;26.58;4.47;;;;;;;11.94;52.60;99440.34;5093150;28;20036;-73
2021/03/11 10:40:24;;;;;;;23.40;4.13;;;;;;;12.48;50.98;99433.72;5092000;28;20038;-70
2021/03/11 10:42:54;;;;;;;28.25;4.97;;;;;;;13.31;47.96;99462.41;5092681;28;20020;-71
2021/03/11 10:45:25;;;;;;;27.30;5.35;;;;;;;13.16;49.37;99447.81;5089172;28;20020;-73
2021/03/11 10:48:00;;;;;;;23.08;4.72;;;;;;;12.93;47.68;99404.25;5093788;28;20062;-71
2021/03/11 10:50:27;;;;;;;25.38;4.90;;;;;;;12.20;49.16;99516.53;5097662;28;20024;-68
2021/03/11 10:52:54;;;;;;;26.45;4.93;;;;;;;12.08;50.85;99451.47;5093814;28;20032;-69
2021/03/11 10:55:39;;;;;;;26.80;4.70;;;;;;;12.04;50.47;99460.41;5092989;28;20488;-69
2021/03/11 10:58:06;;;;;;;25.88;4.72;;;;;;;12.10;51.66;99469.97;5096974;28;20027;-75
2021/03/11 11:00:32;;;;;;;25.63;4.43;;;;;;;12.15;50.88;99446.91;5092788;28;20069;-72
2021/03/11 11:03:00;;;;;;;27.25;5.10;;;;;;;12.05;49.66;99454.22;5094883;28;20071;-71
2021/03/11 11:05:27;;;;;;;24.25;4.38;;;;;;;11.94;49.52;99459.78;5093018;28;20036;-65
2021/03/11 11:07:52;;;;;;;23.92;4.32;;;;;;;11.87;51.26;99476.69;5093687;28;20024;-63
2021/03/11 11:10:21;;;;;;;26.80;4.97;;;;;;;11.69;50.37;99501.75;5093258;28;20031;-62
2021/03/11 11:12:47;;;;;;;25.40;4.93;;;;;;;11.66;50.50;99443.59;5093235;28;20425;-62
2021/03/11 11:15:13;;;;;;;24.38;4.80;;;;;;;11.85;50.04;99466.13;5093266;28;20085;-62
2021/03/11 11:17:40;;;;;;;23.42;4.38;;;;;;;12.33;50.29;99480.03;5094159;28;20111;-69
2021/03/11 11:20:08;;;;;;;24.13;4.32;;;;;;;12.36;50.30;99486.16;5092501;28;20447;-62
2021/03/11 11:22:34;;;;;;;24.05;4.40;;;;;;;12.26;49.38;99504.94;5092163;28;20032;-63
2021/03/11 11:25:00;;;;;;;24.45;4.50;;;;;;;12.17;49.90;99493.66;5092662;28;20024;-63
2021/03/11 11:27:26;;;;;;;25.50;4.25;;;;;;;12.64;49.16;99503.13;5092960;28;20028;-63
2021/03/11 11:29:51;;;;;;;21.27;3.75;;;;;;;12.83;49.19;99496.44;5094410;28;20501;-64
2021/03/11 11:32:17;;;;;;;23.98;4.45;;;;;;;12.28;50.11;99511.09;5094030;28;20027;-64
2021/03/11 11:34:42;;;;;;;22.38;4.57;;;;;;;12.22;49.10;99543.91;5091960;28;20020;-64